sensor_id;sensor_type;location;lat;lon;timestamp;P1;durP1;ratioP1;P2;durP2;ratioP2
19758;SDS011;10038;42.662;23.278;2022-07-23T00:01:18;6.50;;;4.50;;
19758;SDS011;10038;42.662;23.278;2022-07-23T00:03:45;5.07;;;4.40;;
19758;SDS011;10038;42.662;23.278;2022-07-23T00:06:13;7.67;;;4.13;;
19758;SDS011;10038;42.662;23.278;2022-07-23T00:08:40;6.30;;;4.40;;
19758;SDS011;10038;42.662;23.278;2022-07-23T00:11:07;7.97;;;4.87;;
19758;SDS011;10038;42.662;23.278;2022-07-23T00:13:34;9.63;;;5.40;;
19758;SDS011;10038;42.662;23.278;2022-07-23T00:16:01;5.23;;;4.73;;
19758;SDS011;10038;42.662;23.278;2022-07-23T00:18:27;6.90;;;5.00;;
19758;SDS011;10038;42.662;23.278;2022-07-23T00:20:54;11.13;;;6.70;;
19758;SDS011;10038;42.662;23.278;2022-07-23T00:23:22;4.93;;;4.37;;
19758;SDS011;10038;42.662;23.278;2022-07-23T00:25:50;6.50;;;4.50;;
19758;SDS011;10038;42.662;23.278;2022-07-23T00:28:17;7.00;;;4.43;;
19758;SDS011;10038;42.662;23.278;2022-07-23T00:30:44;11.33;;;4.87;;
19758;SDS011;10038;42.662;23.278;2022-07-23T00:33:11;9.13;;;5.80;;
19758;SDS011;10038;42.662;23.278;2022-07-23T00:35:39;6.90;;;5.30;;
19758;SDS011;10038;42.662;23.278;2022-07-23T00:38:07;11.77;;;5.00;;
19758;SDS011;10038;42.662;23.278;2022-07-23T00:40:36;6.63;;;4.70;;
19758;SDS011;10038;42.662;23.278;2022-07-23T00:43:04;6.40;;;4.13;;
19758;SDS011;10038;42.662;23.278;2022-07-23T00:45:31;6.30;;;4.57;;
19758;SDS011;10038;42.662;23.278;2022-07-23T00:47:58;7.90;;;5.47;;
19758;SDS011;10038;42.662;23.278;2022-07-23T00:50:25;5.23;;;4.47;;
19758;SDS011;10038;42.662;23.278;2022-07-23T00:52:52;6.97;;;4.93;;
19758;SDS011;10038;42.662;23.278;2022-07-23T00:55:19;10.77;;;4.30;;
19758;SDS011;10038;42.662;23.278;2022-07-23T00:57:48;8.23;;;5.37;;
19758;SDS011;10038;42.662;23.278;2022-07-23T01:00:16;6.43;;;4.43;;
19758;SDS011;10038;42.662;23.278;2022-07-23T01:02:44;7.43;;;6.47;;
19758;SDS011;10038;42.662;23.278;2022-07-23T01:05:10;6.20;;;5.50;;
19758;SDS011;10038;42.662;23.278;2022-07-23T01:07:38;6.67;;;5.30;;
19758;SDS011;10038;42.662;23.278;2022-07-23T01:10:05;10.10;;;5.27;;
19758;SDS011;10038;42.662;23.278;2022-07-23T01:12:54;7.60;;;5.60;;
19758;SDS011;10038;42.662;23.278;2022-07-23T01:15:21;10.80;;;5.33;;
19758;SDS011;10038;42.662;23.278;2022-07-23T01:17:48;6.50;;;5.40;;
19758;SDS011;10038;42.662;23.278;2022-07-23T01:20:16;9.47;;;5.23;;
19758;SDS011;10038;42.662;23.278;2022-07-23T01:22:44;9.93;;;5.03;;
19758;SDS011;10038;42.662;23.278;2022-07-23T01:25:11;7.27;;;4.97;;
19758;SDS011;10038;42.662;23.278;2022-07-23T01:27:38;6.80;;;5.50;;
19758;SDS011;10038;42.662;23.278;2022-07-23T01:30:05;8.40;;;5.40;;
19758;SDS011;10038;42.662;23.278;2022-07-23T01:32:32;10.57;;;6.70;;
19758;SDS011;10038;42.662;23.278;2022-07-23T01:34:59;7.33;;;5.50;;
19758;SDS011;10038;42.662;23.278;2022-07-23T01:37:26;10.20;;;5.70;;
19758;SDS011;10038;42.662;23.278;2022-07-23T01:39:54;6.60;;;5.60;;
19758;SDS011;10038;42.662;23.278;2022-07-23T01:42:21;8.37;;;5.87;;
19758;SDS011;10038;42.662;23.278;2022-07-23T01:44:48;8.23;;;5.40;;
19758;SDS011;10038;42.662;23.278;2022-07-23T01:47:15;9.03;;;5.80;;
19758;SDS011;10038;42.662;23.278;2022-07-23T01:49:42;7.87;;;5.77;;
19758;SDS011;10038;42.662;23.278;2022-07-23T01:52:09;8.33;;;7.40;;
19758;SDS011;10038;42.662;23.278;2022-07-23T01:54:37;9.83;;;5.03;;
19758;SDS011;10038;42.662;23.278;2022-07-23T01:57:06;7.20;;;5.23;;
19758;SDS011;10038;42.662;23.278;2022-07-23T01:59:33;10.67;;;4.80;;
19758;SDS011;10038;42.662;23.278;2022-07-23T02:02:01;9.03;;;5.00;;
19758;SDS011;10038;42.662;23.278;2022-07-23T02:04:28;11.70;;;5.63;;
19758;SDS011;10038;42.662;23.278;2022-07-23T02:06:55;8.50;;;5.10;;
19758;SDS011;10038;42.662;23.278;2022-07-23T02:09:22;10.43;;;5.73;;
19758;SDS011;10038;42.662;23.278;2022-07-23T02:11:49;6.70;;;5.27;;
19758;SDS011;10038;42.662;23.278;2022-07-23T02:14:17;6.87;;;5.80;;
19758;SDS011;10038;42.662;23.278;2022-07-23T02:16:44;6.00;;;5.20;;
19758;SDS011;10038;42.662;23.278;2022-07-23T02:19:11;8.93;;;6.43;;
19758;SDS011;10038;42.662;23.278;2022-07-23T02:21:37;6.37;;;5.33;;
19758;SDS011;10038;42.662;23.278;2022-07-23T02:24:04;10.20;;;5.37;;
19758;SDS011;10038;42.662;23.278;2022-07-23T02:26:31;8.13;;;5.13;;
19758;SDS011;10038;42.662;23.278;2022-07-23T02:28:59;7.90;;;5.67;;
19758;SDS011;10038;42.662;23.278;2022-07-23T02:31:28;7.50;;;5.60;;
19758;SDS011;10038;42.662;23.278;2022-07-23T02:33:55;8.87;;;6.23;;
19758;SDS011;10038;42.662;23.278;2022-07-23T02:36:22;7.63;;;5.17;;
19758;SDS011;10038;42.662;23.278;2022-07-23T02:38:49;7.20;;;5.93;;
19758;SDS011;10038;42.662;23.278;2022-07-23T02:41:15;7.77;;;6.27;;
19758;SDS011;10038;42.662;23.278;2022-07-23T02:43:42;17.43;;;6.20;;
19758;SDS011;10038;42.662;23.278;2022-07-23T02:46:09;6.70;;;5.43;;
19758;SDS011;10038;42.662;23.278;2022-07-23T02:48:37;9.17;;;5.77;;
19758;SDS011;10038;42.662;23.278;2022-07-23T02:51:04;7.17;;;6.30;;
19758;SDS011;10038;42.662;23.278;2022-07-23T02:53:31;8.20;;;4.80;;
19758;SDS011;10038;42.662;23.278;2022-07-23T02:55:58;6.43;;;5.17;;
19758;SDS011;10038;42.662;23.278;2022-07-23T02:58:25;7.73;;;4.80;;
19758;SDS011;10038;42.662;23.278;2022-07-23T03:00:51;12.13;;;4.97;;
19758;SDS011;10038;42.662;23.278;2022-07-23T03:03:18;10.63;;;5.47;;
19758;SDS011;10038;42.662;23.278;2022-07-23T03:05:47;8.20;;;5.13;;
19758;SDS011;10038;42.662;23.278;2022-07-23T03:08:14;6.10;;;4.90;;
19758;SDS011;10038;42.662;23.278;2022-07-23T03:10:41;6.53;;;4.97;;
19758;SDS011;10038;42.662;23.278;2022-07-23T03:13:07;9.93;;;4.67;;
19758;SDS011;10038;42.662;23.278;2022-07-23T03:15:34;7.50;;;4.70;;
19758;SDS011;10038;42.662;23.278;2022-07-23T03:18:01;10.13;;;5.53;;
19758;SDS011;10038;42.662;23.278;2022-07-23T03:20:28;8.80;;;5.70;;
19758;SDS011;10038;42.662;23.278;2022-07-23T03:22:56;7.47;;;4.93;;
19758;SDS011;10038;42.662;23.278;2022-07-23T03:25:23;15.20;;;5.93;;
19758;SDS011;10038;42.662;23.278;2022-07-23T03:27:49;7.03;;;5.90;;
19758;SDS011;10038;42.662;23.278;2022-07-23T03:30:16;7.00;;;5.63;;
19758;SDS011;10038;42.662;23.278;2022-07-23T03:32:43;8.10;;;6.00;;
19758;SDS011;10038;42.662;23.278;2022-07-23T03:35:10;8.83;;;4.50;;
19758;SDS011;10038;42.662;23.278;2022-07-23T03:37:37;12.10;;;6.47;;
19758;SDS011;10038;42.662;23.278;2022-07-23T03:40:05;10.43;;;5.50;;
19758;SDS011;10038;42.662;23.278;2022-07-23T03:42:33;14.20;;;6.23;;
19758;SDS011;10038;42.662;23.278;2022-07-23T03:45:02;10.13;;;7.23;;
19758;SDS011;10038;42.662;23.278;2022-07-23T03:47:29;7.53;;;5.20;;
19758;SDS011;10038;42.662;23.278;2022-07-23T03:49:56;8.37;;;5.43;;
19758;SDS011;10038;42.662;23.278;2022-07-23T03:52:22;10.20;;;5.63;;
19758;SDS011;10038;42.662;23.278;2022-07-23T03:54:49;10.70;;;5.77;;
19758;SDS011;10038;42.662;23.278;2022-07-23T03:57:17;8.43;;;5.17;;
19758;SDS011;10038;42.662;23.278;2022-07-23T03:59:44;8.10;;;5.40;;
19758;SDS011;10038;42.662;23.278;2022-07-23T04:02:11;10.43;;;5.07;;
19758;SDS011;10038;42.662;23.278;2022-07-23T04:04:38;5.30;;;4.37;;
19758;SDS011;10038;42.662;23.278;2022-07-23T04:07:04;7.47;;;5.47;;
19758;SDS011;10038;42.662;23.278;2022-07-23T04:09:32;8.67;;;5.30;;
19758;SDS011;10038;42.662;23.278;2022-07-23T04:11:59;8.73;;;5.13;;
19758;SDS011;10038;42.662;23.278;2022-07-23T04:14:27;9.07;;;6.03;;
19758;SDS011;10038;42.662;23.278;2022-07-23T04:16:54;12.53;;;5.23;;
19758;SDS011;10038;42.662;23.278;2022-07-23T04:19:21;8.60;;;5.60;;
19758;SDS011;10038;42.662;23.278;2022-07-23T04:21:47;10.13;;;5.73;;
19758;SDS011;10038;42.662;23.278;2022-07-23T04:24:14;11.40;;;6.13;;
19758;SDS011;10038;42.662;23.278;2022-07-23T04:26:41;9.37;;;6.53;;
19758;SDS011;10038;42.662;23.278;2022-07-23T04:29:08;6.97;;;5.53;;
19758;SDS011;10038;42.662;23.278;2022-07-23T04:31:36;8.27;;;5.40;;
19758;SDS011;10038;42.662;23.278;2022-07-23T04:34:03;7.47;;;5.50;;
19758;SDS011;10038;42.662;23.278;2022-07-23T04:36:29;6.77;;;5.97;;
19758;SDS011;10038;42.662;23.278;2022-07-23T04:38:56;6.97;;;6.13;;
19758;SDS011;10038;42.662;23.278;2022-07-23T04:41:23;11.53;;;7.67;;
19758;SDS011;10038;42.662;23.278;2022-07-23T04:43:50;7.33;;;6.53;;
19758;SDS011;10038;42.662;23.278;2022-07-23T04:46:16;8.40;;;6.00;;
19758;SDS011;10038;42.662;23.278;2022-07-23T04:48:44;9.80;;;5.97;;
19758;SDS011;10038;42.662;23.278;2022-07-23T04:51:11;7.53;;;6.70;;
19758;SDS011;10038;42.662;23.278;2022-07-23T04:53:38;9.00;;;7.13;;
19758;SDS011;10038;42.662;23.278;2022-07-23T04:56:05;8.47;;;6.87;;
19758;SDS011;10038;42.662;23.278;2022-07-23T04:58:32;10.80;;;6.90;;
19758;SDS011;10038;42.662;23.278;2022-07-23T05:00:59;9.50;;;6.30;;
19758;SDS011;10038;42.662;23.278;2022-07-23T05:03:26;10.70;;;6.87;;
19758;SDS011;10038;42.662;23.278;2022-07-23T05:05:54;16.97;;;6.77;;
19758;SDS011;10038;42.662;23.278;2022-07-23T05:08:21;10.00;;;6.67;;
19758;SDS011;10038;42.662;23.278;2022-07-23T05:10:47;8.40;;;6.60;;
19758;SDS011;10038;42.662;23.278;2022-07-23T05:13:14;9.53;;;6.37;;
19758;SDS011;10038;42.662;23.278;2022-07-23T05:15:43;7.10;;;6.30;;
19758;SDS011;10038;42.662;23.278;2022-07-23T05:18:10;9.83;;;6.30;;
19758;SDS011;10038;42.662;23.278;2022-07-23T05:20:37;9.60;;;6.60;;
19758;SDS011;10038;42.662;23.278;2022-07-23T05:23:05;10.90;;;7.57;;
19758;SDS011;10038;42.662;23.278;2022-07-23T05:25:33;9.63;;;6.40;;
19758;SDS011;10038;42.662;23.278;2022-07-23T05:27:59;10.40;;;7.83;;
19758;SDS011;10038;42.662;23.278;2022-07-23T05:30:26;8.13;;;7.33;;
19758;SDS011;10038;42.662;23.278;2022-07-23T05:32:53;9.00;;;5.90;;
19758;SDS011;10038;42.662;23.278;2022-07-23T05:35:20;21.53;;;10.30;;
19758;SDS011;10038;42.662;23.278;2022-07-23T05:37:46;60.20;;;12.40;;
19758;SDS011;10038;42.662;23.278;2022-07-23T05:40:15;11.20;;;6.70;;
19758;SDS011;10038;42.662;23.278;2022-07-23T05:42:41;12.97;;;8.27;;
19758;SDS011;10038;42.662;23.278;2022-07-23T05:45:09;11.10;;;6.90;;
19758;SDS011;10038;42.662;23.278;2022-07-23T05:47:40;6.90;;;5.70;;
19758;SDS011;10038;42.662;23.278;2022-07-23T05:50:08;8.40;;;6.23;;
19758;SDS011;10038;42.662;23.278;2022-07-23T05:52:35;10.03;;;7.03;;
19758;SDS011;10038;42.662;23.278;2022-07-23T05:55:02;7.10;;;6.07;;
19758;SDS011;10038;42.662;23.278;2022-07-23T05:57:30;6.40;;;5.80;;
19758;SDS011;10038;42.662;23.278;2022-07-23T05:59:57;8.77;;;6.30;;
19758;SDS011;10038;42.662;23.278;2022-07-23T06:02:24;7.27;;;6.07;;
19758;SDS011;10038;42.662;23.278;2022-07-23T06:04:50;11.23;;;7.90;;
19758;SDS011;10038;42.662;23.278;2022-07-23T06:07:17;9.40;;;6.77;;
19758;SDS011;10038;42.662;23.278;2022-07-23T06:09:44;12.77;;;7.60;;
19758;SDS011;10038;42.662;23.278;2022-07-23T06:12:12;12.80;;;6.40;;
19758;SDS011;10038;42.662;23.278;2022-07-23T06:14:40;10.67;;;6.47;;
19758;SDS011;10038;42.662;23.278;2022-07-23T06:17:07;6.73;;;6.13;;
19758;SDS011;10038;42.662;23.278;2022-07-23T06:19:34;15.83;;;8.37;;
19758;SDS011;10038;42.662;23.278;2022-07-23T06:22:01;6.57;;;5.87;;
19758;SDS011;10038;42.662;23.278;2022-07-23T06:24:28;9.20;;;7.13;;
19758;SDS011;10038;42.662;23.278;2022-07-23T06:26:54;10.00;;;7.03;;
19758;SDS011;10038;42.662;23.278;2022-07-23T06:29:21;9.67;;;7.60;;
19758;SDS011;10038;42.662;23.278;2022-07-23T06:31:49;12.77;;;7.90;;
19758;SDS011;10038;42.662;23.278;2022-07-23T06:34:16;8.63;;;7.53;;
19758;SDS011;10038;42.662;23.278;2022-07-23T06:36:43;10.20;;;7.87;;
19758;SDS011;10038;42.662;23.278;2022-07-23T06:39:10;10.60;;;6.73;;
19758;SDS011;10038;42.662;23.278;2022-07-23T06:41:37;9.57;;;6.30;;
19758;SDS011;10038;42.662;23.278;2022-07-23T06:44:03;8.00;;;6.73;;
19758;SDS011;10038;42.662;23.278;2022-07-23T06:46:30;10.40;;;7.53;;
19758;SDS011;10038;42.662;23.278;2022-07-23T06:48:58;10.70;;;7.30;;
19758;SDS011;10038;42.662;23.278;2022-07-23T06:51:25;9.07;;;6.73;;
19758;SDS011;10038;42.662;23.278;2022-07-23T06:53:52;8.50;;;7.30;;
19758;SDS011;10038;42.662;23.278;2022-07-23T06:56:18;13.27;;;6.57;;
19758;SDS011;10038;42.662;23.278;2022-07-23T06:58:45;7.50;;;6.80;;
19758;SDS011;10038;42.662;23.278;2022-07-23T07:01:12;8.27;;;6.60;;
19758;SDS011;10038;42.662;23.278;2022-07-23T07:03:39;9.10;;;7.07;;
19758;SDS011;10038;42.662;23.278;2022-07-23T07:06:07;8.10;;;7.30;;
19758;SDS011;10038;42.662;23.278;2022-07-23T07:08:34;8.10;;;6.70;;
19758;SDS011;10038;42.662;23.278;2022-07-23T07:11:01;9.50;;;6.70;;
19758;SDS011;10038;42.662;23.278;2022-07-23T07:13:28;7.33;;;6.63;;
19758;SDS011;10038;42.662;23.278;2022-07-23T07:15:54;7.70;;;6.17;;
19758;SDS011;10038;42.662;23.278;2022-07-23T07:18:21;10.90;;;7.03;;
19758;SDS011;10038;42.662;23.278;2022-07-23T07:20:48;8.17;;;7.07;;
19758;SDS011;10038;42.662;23.278;2022-07-23T07:23:16;7.57;;;6.70;;
19758;SDS011;10038;42.662;23.278;2022-07-23T07:25:43;8.77;;;7.03;;
19758;SDS011;10038;42.662;23.278;2022-07-23T07:28:10;8.73;;;7.00;;
19758;SDS011;10038;42.662;23.278;2022-07-23T07:30:37;8.57;;;7.47;;
19758;SDS011;10038;42.662;23.278;2022-07-23T07:33:03;12.83;;;6.77;;
19758;SDS011;10038;42.662;23.278;2022-07-23T07:35:30;10.17;;;8.50;;
19758;SDS011;10038;42.662;23.278;2022-07-23T07:37:57;8.30;;;6.93;;
19758;SDS011;10038;42.662;23.278;2022-07-23T07:40:25;7.97;;;7.27;;
19758;SDS011;10038;42.662;23.278;2022-07-23T07:42:53;11.37;;;7.93;;
19758;SDS011;10038;42.662;23.278;2022-07-23T07:45:22;10.40;;;7.33;;
19758;SDS011;10038;42.662;23.278;2022-07-23T07:47:49;8.20;;;6.83;;
19758;SDS011;10038;42.662;23.278;2022-07-23T07:50:17;9.60;;;7.10;;
19758;SDS011;10038;42.662;23.278;2022-07-23T07:52:44;7.20;;;6.50;;
19758;SDS011;10038;42.662;23.278;2022-07-23T07:55:10;9.57;;;7.23;;
19758;SDS011;10038;42.662;23.278;2022-07-23T07:57:39;10.97;;;7.20;;
19758;SDS011;10038;42.662;23.278;2022-07-23T08:00:07;12.00;;;7.63;;
19758;SDS011;10038;42.662;23.278;2022-07-23T08:02:42;12.00;;;7.70;;
19758;SDS011;10038;42.662;23.278;2022-07-23T08:05:10;13.20;;;6.50;;
19758;SDS011;10038;42.662;23.278;2022-07-23T08:07:37;6.50;;;5.90;;
19758;SDS011;10038;42.662;23.278;2022-07-23T08:10:05;7.00;;;6.30;;
19758;SDS011;10038;42.662;23.278;2022-07-23T08:12:41;8.27;;;6.90;;
19758;SDS011;10038;42.662;23.278;2022-07-23T08:15:10;13.67;;;6.70;;
19758;SDS011;10038;42.662;23.278;2022-07-23T08:17:37;8.30;;;7.10;;
19758;SDS011;10038;42.662;23.278;2022-07-23T08:20:05;8.27;;;7.47;;
19758;SDS011;10038;42.662;23.278;2022-07-23T08:22:43;12.17;;;8.20;;
19758;SDS011;10038;42.662;23.278;2022-07-23T08:25:14;9.60;;;7.63;;
19758;SDS011;10038;42.662;23.278;2022-07-23T08:27:43;8.50;;;7.60;;
19758;SDS011;10038;42.662;23.278;2022-07-23T08:30:10;9.50;;;7.10;;
19758;SDS011;10038;42.662;23.278;2022-07-23T08:32:50;9.20;;;6.97;;
19758;SDS011;10038;42.662;23.278;2022-07-23T08:35:21;9.13;;;7.27;;
19758;SDS011;10038;42.662;23.278;2022-07-23T08:37:49;8.13;;;7.33;;
19758;SDS011;10038;42.662;23.278;2022-07-23T08:40:16;8.40;;;7.70;;
19758;SDS011;10038;42.662;23.278;2022-07-23T08:42:44;7.83;;;6.27;;
19758;SDS011;10038;42.662;23.278;2022-07-23T08:45:16;7.23;;;6.53;;
19758;SDS011;10038;42.662;23.278;2022-07-23T08:47:44;10.90;;;7.37;;
19758;SDS011;10038;42.662;23.278;2022-07-23T08:50:11;7.93;;;6.83;;
19758;SDS011;10038;42.662;23.278;2022-07-23T08:52:38;9.20;;;7.13;;
19758;SDS011;10038;42.662;23.278;2022-07-23T08:55:06;8.83;;;6.93;;
19758;SDS011;10038;42.662;23.278;2022-07-23T08:57:34;9.97;;;8.00;;
19758;SDS011;10038;42.662;23.278;2022-07-23T09:00:02;7.20;;;6.50;;
19758;SDS011;10038;42.662;23.278;2022-07-23T09:02:30;8.83;;;8.00;;
19758;SDS011;10038;42.662;23.278;2022-07-23T09:04:57;10.00;;;6.17;;
19758;SDS011;10038;42.662;23.278;2022-07-23T09:07:23;10.50;;;7.83;;
19758;SDS011;10038;42.662;23.278;2022-07-23T09:09:58;11.47;;;8.27;;
19758;SDS011;10038;42.662;23.278;2022-07-23T09:12:32;8.80;;;7.90;;
19758;SDS011;10038;42.662;23.278;2022-07-23T09:15:04;9.97;;;7.00;;
19758;SDS011;10038;42.662;23.278;2022-07-23T09:17:38;7.90;;;7.20;;
19758;SDS011;10038;42.662;23.278;2022-07-23T09:20:08;7.37;;;6.03;;
19758;SDS011;10038;42.662;23.278;2022-07-23T09:22:37;7.53;;;6.43;;
19758;SDS011;10038;42.662;23.278;2022-07-23T09:25:05;8.07;;;6.57;;
19758;SDS011;10038;42.662;23.278;2022-07-23T09:27:53;7.83;;;6.03;;
19758;SDS011;10038;42.662;23.278;2022-07-23T09:30:23;7.80;;;7.10;;
19758;SDS011;10038;42.662;23.278;2022-07-23T09:33:05;13.93;;;6.80;;
19758;SDS011;10038;42.662;23.278;2022-07-23T09:35:49;7.57;;;6.87;;
19758;SDS011;10038;42.662;23.278;2022-07-23T09:38:16;5.67;;;5.17;;
19758;SDS011;10038;42.662;23.278;2022-07-23T09:40:44;6.70;;;6.10;;
19758;SDS011;10038;42.662;23.278;2022-07-23T09:43:12;12.33;;;6.20;;
19758;SDS011;10038;42.662;23.278;2022-07-23T09:45:40;8.10;;;5.93;;
19758;SDS011;10038;42.662;23.278;2022-07-23T09:48:11;7.80;;;5.90;;
19758;SDS011;10038;42.662;23.278;2022-07-23T09:50:38;7.97;;;5.80;;
19758;SDS011;10038;42.662;23.278;2022-07-23T09:53:06;11.43;;;7.07;;
19758;SDS011;10038;42.662;23.278;2022-07-23T09:55:34;6.93;;;6.23;;
19758;SDS011;10038;42.662;23.278;2022-07-23T09:58:03;6.30;;;5.70;;
19758;SDS011;10038;42.662;23.278;2022-07-23T10:00:30;6.73;;;6.03;;
19758;SDS011;10038;42.662;23.278;2022-07-23T10:02:59;7.20;;;6.57;;
19758;SDS011;10038;42.662;23.278;2022-07-23T10:05:26;7.27;;;6.40;;
19758;SDS011;10038;42.662;23.278;2022-07-23T10:07:53;6.53;;;5.80;;
19758;SDS011;10038;42.662;23.278;2022-07-23T10:10:21;6.37;;;5.77;;
19758;SDS011;10038;42.662;23.278;2022-07-23T10:12:52;6.27;;;5.67;;
19758;SDS011;10038;42.662;23.278;2022-07-23T10:15:46;6.90;;;6.20;;
19758;SDS011;10038;42.662;23.278;2022-07-23T10:18:14;7.63;;;6.90;;
19758;SDS011;10038;42.662;23.278;2022-07-23T10:20:41;7.87;;;7.07;;
19758;SDS011;10038;42.662;23.278;2022-07-23T10:23:11;8.23;;;6.53;;
19758;SDS011;10038;42.662;23.278;2022-07-23T10:25:45;5.20;;;4.80;;
19758;SDS011;10038;42.662;23.278;2022-07-23T10:28:24;5.80;;;5.10;;
19758;SDS011;10038;42.662;23.278;2022-07-23T10:31:05;7.43;;;4.97;;
19758;SDS011;10038;42.662;23.278;2022-07-23T10:33:45;7.53;;;4.53;;
19758;SDS011;10038;42.662;23.278;2022-07-23T10:36:23;4.87;;;4.37;;
19758;SDS011;10038;42.662;23.278;2022-07-23T10:38:56;5.90;;;4.50;;
19758;SDS011;10038;42.662;23.278;2022-07-23T10:41:30;5.67;;;4.60;;
19758;SDS011;10038;42.662;23.278;2022-07-23T10:44:08;8.43;;;4.23;;
19758;SDS011;10038;42.662;23.278;2022-07-23T10:46:36;4.67;;;4.03;;
19758;SDS011;10038;42.662;23.278;2022-07-23T10:49:22;5.30;;;4.90;;
19758;SDS011;10038;42.662;23.278;2022-07-23T10:54:44;7.30;;;4.60;;
19758;SDS011;10038;42.662;23.278;2022-07-23T10:57:12;5.80;;;5.30;;
19758;SDS011;10038;42.662;23.278;2022-07-23T11:02:44;8.43;;;4.43;;
19758;SDS011;10038;42.662;23.278;2022-07-23T11:05:14;7.17;;;4.73;;
19758;SDS011;10038;42.662;23.278;2022-07-23T11:10:40;5.97;;;4.83;;
19758;SDS011;10038;42.662;23.278;2022-07-23T11:13:28;5.93;;;4.37;;
19758;SDS011;10038;42.662;23.278;2022-07-23T11:16:03;6.53;;;4.83;;
19758;SDS011;10038;42.662;23.278;2022-07-23T11:21:43;10.40;;;4.00;;
19758;SDS011;10038;42.662;23.278;2022-07-23T11:24:18;8.07;;;4.57;;
19758;SDS011;10038;42.662;23.278;2022-07-23T11:26:48;5.33;;;3.93;;
19758;SDS011;10038;42.662;23.278;2022-07-23T11:29:47;5.50;;;4.63;;
19758;SDS011;10038;42.662;23.278;2022-07-23T11:38:04;7.23;;;5.00;;
19758;SDS011;10038;42.662;23.278;2022-07-23T11:40:32;7.40;;;4.20;;
19758;SDS011;10038;42.662;23.278;2022-07-23T11:43:01;4.70;;;3.90;;
19758;SDS011;10038;42.662;23.278;2022-07-23T11:45:30;7.97;;;4.80;;
19758;SDS011;10038;42.662;23.278;2022-07-23T11:47:59;12.30;;;4.83;;
19758;SDS011;10038;42.662;23.278;2022-07-23T11:50:25;4.60;;;4.17;;
19758;SDS011;10038;42.662;23.278;2022-07-23T11:52:52;8.03;;;4.07;;
19758;SDS011;10038;42.662;23.278;2022-07-23T11:55:21;6.70;;;4.40;;
19758;SDS011;10038;42.662;23.278;2022-07-23T11:57:48;7.43;;;3.83;;
19758;SDS011;10038;42.662;23.278;2022-07-23T12:00:18;7.27;;;4.13;;
19758;SDS011;10038;42.662;23.278;2022-07-23T12:02:46;5.40;;;3.17;;
19758;SDS011;10038;42.662;23.278;2022-07-23T12:05:14;8.23;;;4.60;;
19758;SDS011;10038;42.662;23.278;2022-07-23T12:07:43;8.43;;;5.03;;
19758;SDS011;10038;42.662;23.278;2022-07-23T12:10:15;6.37;;;3.40;;
19758;SDS011;10038;42.662;23.278;2022-07-23T12:12:46;5.00;;;3.40;;
19758;SDS011;10038;42.662;23.278;2022-07-23T12:15:16;6.87;;;4.17;;
19758;SDS011;10038;42.662;23.278;2022-07-23T12:17:45;8.60;;;4.27;;
19758;SDS011;10038;42.662;23.278;2022-07-23T12:20:13;6.93;;;4.13;;
19758;SDS011;10038;42.662;23.278;2022-07-23T12:22:42;9.30;;;4.10;;
19758;SDS011;10038;42.662;23.278;2022-07-23T12:25:10;6.90;;;3.10;;
19758;SDS011;10038;42.662;23.278;2022-07-23T12:27:38;5.67;;;4.33;;
19758;SDS011;10038;42.662;23.278;2022-07-23T12:30:16;6.30;;;3.70;;
19758;SDS011;10038;42.662;23.278;2022-07-23T12:32:47;8.97;;;4.00;;
19758;SDS011;10038;42.662;23.278;2022-07-23T12:35:15;8.93;;;3.93;;
19758;SDS011;10038;42.662;23.278;2022-07-23T12:37:43;6.57;;;4.77;;
19758;SDS011;10038;42.662;23.278;2022-07-23T12:40:27;5.77;;;4.10;;
19758;SDS011;10038;42.662;23.278;2022-07-23T12:42:56;5.17;;;4.53;;
19758;SDS011;10038;42.662;23.278;2022-07-23T12:45:26;11.20;;;4.83;;
19758;SDS011;10038;42.662;23.278;2022-07-23T12:48:00;6.53;;;4.33;;
19758;SDS011;10038;42.662;23.278;2022-07-23T12:50:36;7.30;;;3.70;;
19758;SDS011;10038;42.662;23.278;2022-07-23T12:53:09;8.80;;;4.20;;
19758;SDS011;10038;42.662;23.278;2022-07-23T12:55:38;13.73;;;5.77;;
19758;SDS011;10038;42.662;23.278;2022-07-23T12:58:06;8.47;;;3.60;;
19758;SDS011;10038;42.662;23.278;2022-07-23T13:03:33;6.93;;;4.00;;
19758;SDS011;10038;42.662;23.278;2022-07-23T13:06:03;9.00;;;4.60;;
19758;SDS011;10038;42.662;23.278;2022-07-23T13:08:31;7.10;;;3.27;;
19758;SDS011;10038;42.662;23.278;2022-07-23T13:10:59;7.10;;;3.93;;
19758;SDS011;10038;42.662;23.278;2022-07-23T13:13:27;5.60;;;4.20;;
19758;SDS011;10038;42.662;23.278;2022-07-23T13:15:55;8.83;;;3.77;;
19758;SDS011;10038;42.662;23.278;2022-07-23T13:18:24;7.60;;;4.40;;
19758;SDS011;10038;42.662;23.278;2022-07-23T13:20:51;7.23;;;4.47;;
19758;SDS011;10038;42.662;23.278;2022-07-23T13:23:20;6.13;;;4.90;;
19758;SDS011;10038;42.662;23.278;2022-07-23T13:25:47;5.93;;;5.33;;
19758;SDS011;10038;42.662;23.278;2022-07-23T13:28:15;8.20;;;5.30;;
19758;SDS011;10038;42.662;23.278;2022-07-23T13:30:43;4.97;;;4.47;;
19758;SDS011;10038;42.662;23.278;2022-07-23T13:33:10;10.73;;;6.90;;
19758;SDS011;10038;42.662;23.278;2022-07-23T13:35:38;7.00;;;3.97;;
19758;SDS011;10038;42.662;23.278;2022-07-23T13:38:05;5.73;;;4.17;;
19758;SDS011;10038;42.662;23.278;2022-07-23T13:40:34;7.17;;;4.20;;
19758;SDS011;10038;42.662;23.278;2022-07-23T13:43:01;5.73;;;4.17;;
19758;SDS011;10038;42.662;23.278;2022-07-23T13:45:28;4.10;;;3.50;;
19758;SDS011;10038;42.662;23.278;2022-07-23T13:47:54;8.93;;;4.03;;
19758;SDS011;10038;42.662;23.278;2022-07-23T13:50:21;5.20;;;3.67;;
19758;SDS011;10038;42.662;23.278;2022-07-23T13:52:50;3.60;;;3.30;;
19758;SDS011;10038;42.662;23.278;2022-07-23T13:55:17;8.83;;;4.60;;
19758;SDS011;10038;42.662;23.278;2022-07-23T13:57:44;7.90;;;4.10;;
19758;SDS011;10038;42.662;23.278;2022-07-23T14:00:11;9.43;;;4.20;;
19758;SDS011;10038;42.662;23.278;2022-07-23T14:02:39;4.87;;;3.30;;
19758;SDS011;10038;42.662;23.278;2022-07-23T14:05:07;7.53;;;4.27;;
19758;SDS011;10038;42.662;23.278;2022-07-23T14:07:35;6.63;;;3.27;;
19758;SDS011;10038;42.662;23.278;2022-07-23T14:10:04;6.43;;;3.93;;
19758;SDS011;10038;42.662;23.278;2022-07-23T14:12:32;5.03;;;3.17;;
19758;SDS011;10038;42.662;23.278;2022-07-23T14:14:59;4.40;;;3.80;;
19758;SDS011;10038;42.662;23.278;2022-07-23T14:17:25;5.20;;;4.17;;
19758;SDS011;10038;42.662;23.278;2022-07-23T14:19:52;5.80;;;4.10;;
19758;SDS011;10038;42.662;23.278;2022-07-23T14:22:19;8.87;;;4.10;;
19758;SDS011;10038;42.662;23.278;2022-07-23T14:24:46;4.40;;;3.30;;
19758;SDS011;10038;42.662;23.278;2022-07-23T14:27:14;12.00;;;3.77;;
19758;SDS011;10038;42.662;23.278;2022-07-23T14:29:41;4.10;;;3.43;;
19758;SDS011;10038;42.662;23.278;2022-07-23T14:32:07;5.60;;;3.93;;
19758;SDS011;10038;42.662;23.278;2022-07-23T14:34:35;5.93;;;3.43;;
19758;SDS011;10038;42.662;23.278;2022-07-23T14:37:02;5.20;;;3.77;;
19758;SDS011;10038;42.662;23.278;2022-07-23T14:39:29;6.07;;;4.47;;
19758;SDS011;10038;42.662;23.278;2022-07-23T14:41:55;6.73;;;4.67;;
19758;SDS011;10038;42.662;23.278;2022-07-23T14:44:23;5.30;;;3.30;;
19758;SDS011;10038;42.662;23.278;2022-07-23T14:46:50;3.33;;;3.03;;
19758;SDS011;10038;42.662;23.278;2022-07-23T14:49:17;9.30;;;4.63;;
19758;SDS011;10038;42.662;23.278;2022-07-23T14:51:44;11.13;;;3.57;;
19758;SDS011;10038;42.662;23.278;2022-07-23T14:54:11;4.30;;;3.90;;
19758;SDS011;10038;42.662;23.278;2022-07-23T14:56:39;7.90;;;3.93;;
19758;SDS011;10038;42.662;23.278;2022-07-23T14:59:06;6.23;;;3.70;;